Time;durP1;ratioP1;P1;durP2;ratioP2;P2;SDS_P1;SDS_P2;PMS_P1;PMS_P2;Temp;Humidity;BMP_temperature;BMP_pressure;BME280_temperature;BME280_humidity;BME280_pressure;Samples;Min_cycle;Max_cycle;Signal;HPM_P1;HPM_P2
2024/03/09 00:04:32;;;;;;;46.47;25.02;;;;;;;4.30;67.44;99710.00;10216351;28;20062;-82
2024/03/09 00:09:36;;;;;;;48.42;25.88;;;;;;;4.22;67.92;99715.81;10234434;28;20051;-82
2024/03/09 00:14:40;;;;;;;49.85;26.83;;;;;;;4.17;68.15;99710.81;10241914;28;20051;-82
2024/03/09 00:19:45;;;;;;;50.35;27.80;;;;;;;4.20;68.11;99717.75;10231467;28;21347;-83
2024/03/09 00:24:49;;;;;;;42.55;24.85;;;;;;;4.16;68.49;99708.25;10207405;28;20047;-82
2024/03/09 00:29:54;;;;;;;46.13;25.67;;;;;;;4.10;68.53;99709.50;10219330;28;20623;-83
2024/03/09 00:34:59;;;;;;;49.80;26.30;;;;;;;4.00;69.03;99699.56;10218536;28;20051;-82
2024/03/09 00:40:04;;;;;;;50.88;26.67;;;;;;;3.97;69.20;99697.09;10222629;28;20062;-83
2024/03/09 00:45:09;;;;;;;47.28;25.73;;;;;;;3.90;69.69;99691.34;10221996;28;20051;-83
2024/03/09 00:50:16;;;;;;;47.53;25.25;;;;;;;3.91;69.60;99685.06;10215562;28;20458;-82
2024/03/09 00:55:19;;;;;;;44.47;23.98;;;;;;;3.87;69.75;99665.81;10224804;28;20065;-82
2024/03/09 01:00:23;;;;;;;44.10;24.67;;;;;;;3.81;70.33;99671.50;10203938;28;20047;-82
2024/03/09 01:05:29;;;;;;;48.03;25.75;;;;;;;3.82;70.15;99662.59;10212345;28;20059;-83
2024/03/09 01:10:32;;;;;;;46.00;24.63;;;;;;;3.77;70.39;99653.22;10215557;29;20079;-82
2024/03/09 01:15:35;;;;;;;49.55;25.08;;;;;;;3.72;70.65;99646.41;10213475;28;20182;-82
2024/03/09 01:20:40;;;;;;;43.47;25.50;;;;;;;3.66;71.35;99637.97;10216083;28;20059;-81
2024/03/09 01:25:43;;;;;;;46.00;24.40;;;;;;;3.65;71.45;99629.16;10227508;28;20063;-81
2024/03/09 01:30:46;;;;;;;40.25;23.85;;;;;;;3.61;71.47;99624.13;10222426;28;20187;-81
2024/03/09 01:35:51;;;;;;;43.25;23.95;;;;;;;3.49;72.51;99612.50;10222739;28;20055;-81
2024/03/09 01:40:54;;;;;;;43.97;25.35;;;;;;;3.49;72.73;99602.72;10218265;28;20147;-81
2024/03/09 01:45:58;;;;;;;49.35;25.30;;;;;;;3.49;72.71;99600.09;10218853;28;20039;-81
2024/03/09 01:51:04;;;;;;;48.42;25.40;;;;;;;3.41;73.52;99593.56;10214511;28;20048;-81
2024/03/09 01:56:11;;;;;;;42.92;24.95;;;;;;;3.35;73.77;99584.19;10217632;28;20051;-81
2024/03/09 02:01:24;;;;;;;44.10;25.73;;;;;;;3.39;73.47;99575.06;10221452;28;20082;-82
2024/03/09 02:06:29;;;;;;;48.35;25.63;;;;;;;3.37;73.53;99568.13;10229736;28;20036;-81
2024/03/09 02:11:36;;;;;;;46.15;25.65;;;;;;;3.27;74.09;99555.47;10212820;28;20581;-82
2024/03/09 02:16:41;;;;;;;50.40;25.10;;;;;;;3.23;74.31;99556.59;10207487;28;20106;-81
2024/03/09 02:21:46;;;;;;;48.72;24.10;;;;;;;3.14;74.56;99557.19;10214717;28;21208;-82
2024/03/09 02:26:52;;;;;;;46.13;25.08;;;;;;;3.13;75.08;99536.94;10211436;28;20043;-82
2024/03/09 02:31:56;;;;;;;49.65;25.58;;;;;;;3.05;75.42;99541.88;10214143;28;20063;-81
2024/03/09 02:36:59;;;;;;;47.05;27.60;;;;;;;3.04;75.54;99538.38;10218525;28;20517;-82
2024/03/09 02:42:04;;;;;;;48.90;26.60;;;;;;;2.98;75.95;99522.81;10237828;28;20054;-81
2024/03/09 02:47:08;;;;;;;42.00;23.33;;;;;;;2.93;76.46;99524.06;10247729;28;20098;-81
2024/03/09 02:52:11;;;;;;;52.35;25.65;;;;;;;3.01;75.86;99525.25;10249212;28;20056;-82
2024/03/09 02:57:16;;;;;;;47.17;26.25;;;;;;;2.93;76.25;99524.06;10237392;28;20098;-82
2024/03/09 03:07:36;;;;;;;47.60;24.15;;;;;;;2.92;75.89;99515.25;10215418;28;21187;-82
2024/03/09 03:12:41;;;;;;;44.13;24.88;;;;;;;2.93;75.93;99505.47;10223973;28;20056;-82
2024/03/09 03:17:44;;;;;;;46.67;26.55;;;;;;;2.78;76.49;99494.06;10219260;28;20054;-82
2024/03/09 03:22:48;;;;;;;45.45;23.80;;;;;;;2.80;76.18;99498.31;10213937;28;20055;-82
2024/03/09 03:27:52;;;;;;;45.25;24.23;;;;;;;2.75;76.78;99495.09;10226705;28;21143;-82
2024/03/09 03:32:55;;;;;;;45.95;24.35;;;;;;;2.73;77.02;99486.38;10215761;28;20611;-82
2024/03/09 03:37:59;;;;;;;45.90;24.15;;;;;;;2.74;76.84;99493.41;10219044;28;20129;-82
2024/03/09 03:43:04;;;;;;;42.45;24.05;;;;;;;2.83;76.37;99495.47;10236033;28;20058;-82
2024/03/09 03:48:15;;;;;;;43.92;23.58;;;;;;;2.76;76.53;99491.47;10214613;28;20051;-81
2024/03/09 03:53:18;;;;;;;45.75;24.65;;;;;;;2.81;76.30;99481.44;10220296;28;20046;-83
2024/03/09 03:58:23;;;;;;;45.30;21.85;;;;;;;2.61;77.20;99482.69;10231353;28;20062;-81
2024/03/09 04:03:31;;;;;;;48.05;24.58;;;;;;;2.59;77.61;99483.75;10216309;28;20078;-81
2024/03/09 04:08:35;;;;;;;46.92;27.13;;;;;;;2.55;77.57;99472.47;10214460;28;20055;-82
2024/03/09 04:13:39;;;;;;;46.05;26.02;;;;;;;2.67;77.12;99454.09;10208879;28;20774;-82
2024/03/09 04:18:42;;;;;;;46.67;24.45;;;;;;;2.49;78.28;99456.91;10216629;28;21138;-82
2024/03/09 04:23:45;;;;;;;47.63;24.35;;;;;;;2.54;78.00;99473.41;10220755;28;20047;-82
2024/03/09 04:28:50;;;;;;;47.92;25.67;;;;;;;2.83;76.54;99492.81;10208017;28;20047;-82
2024/03/09 04:33:53;;;;;;;50.13;24.50;;;;;;;2.89;76.00;99496.03;10211605;28;20051;-82
2024/03/09 04:39:00;;;;;;;42.30;22.92;;;;;;;2.86;75.53;99491.75;10225736;28;20047;-82
2024/03/09 04:44:05;;;;;;;44.92;25.95;;;;;;;2.69;76.41;99479.56;10247334;28;20051;-82
2024/03/09 04:49:21;;;;;;;52.97;25.33;;;;;;;2.72;76.10;99484.69;10249792;28;20082;-83
2024/03/09 04:54:24;;;;;;;46.83;26.85;;;;;;;2.57;77.04;99478.50;10222521;28;20094;-83
2024/03/09 04:59:29;;;;;;;42.83;22.83;;;;;;;2.53;77.51;99478.78;10227247;28;20099;-82
2024/03/09 05:04:32;;;;;;;47.67;25.75;;;;;;;2.38;78.33;99465.50;10226620;28;20066;-82
2024/03/09 05:09:37;;;;;;;50.17;25.35;;;;;;;2.39;78.24;99461.09;10244607;28;20513;-82
2024/03/09 05:14:41;;;;;;;51.13;26.83;;;;;;;2.22;79.18;99469.19;10229065;28;20091;-82
2024/03/09 05:19:44;;;;;;;43.42;25.33;;;;;;;2.29;78.88;99457.28;10224024;28;20595;-82
2024/03/09 05:24:47;;;;;;;55.55;26.88;;;;;;;2.10;80.21;99458.41;10224617;28;20055;-82
2024/03/09 05:29:52;;;;;;;55.33;28.60;;;;;;;2.11;79.86;99454.84;10222568;28;20055;-82
2024/03/09 05:34:55;;;;;;;56.83;29.20;;;;;;;2.00;80.03;99448.47;10214324;28;20386;-82
2024/03/09 05:39:58;;;;;;;53.67;26.92;;;;;;;1.96;80.29;99445.16;10215321;28;20040;-82
2024/03/09 05:45:03;;;;;;;53.03;27.15;;;;;;;1.88;80.92;99427.06;10213409;28;20114;-82
2024/03/09 05:50:07;;;;;;;56.03;27.73;;;;;;;1.96;80.45;99421.31;10214644;28;20070;-81
2024/03/09 05:55:10;;;;;;;51.28;26.02;;;;;;;2.13;79.51;99429.06;10224172;28;20139;-82
2024/03/09 06:00:17;;;;;;;51.13;25.58;;;;;;;2.17;79.07;99420.00;10221939;28;20870;-81
2024/03/09 06:05:21;;;;;;;53.60;27.17;;;;;;;2.16;79.06;99409.50;10246384;28;21257;-82
2024/03/09 06:10:24;;;;;;;55.28;29.10;;;;;;;2.27;78.46;99425.56;10231895;28;20086;-82
2024/03/09 06:15:30;;;;;;;51.95;25.95;;;;;;;2.27;78.05;99430.03;10220353;28;20649;-82
2024/03/09 06:20:34;;;;;;;49.22;26.55;;;;;;;2.25;78.16;99416.00;10218688;28;20062;-82
2024/03/09 06:25:40;;;;;;;54.25;27.67;;;;;;;2.29;78.02;99420.19;10225082;28;20059;-82
2024/03/09 06:30:45;;;;;;;48.20;24.30;;;;;;;2.49;77.28;99413.63;10236671;28;20071;-82
2024/03/09 06:35:53;;;;;;;56.30;25.73;;;;;;;2.68;76.41;99422.16;10223752;28;20534;-82
2024/03/09 06:40:56;;;;;;;48.92;25.38;;;;;;;2.84;75.20;99419.38;10219371;28;20098;-83
2024/03/09 06:46:01;;;;;;;48.42;25.65;;;;;;;2.96;74.25;99428.34;10223143;28;20062;-82
2024/03/09 06:51:06;;;;;;;71.20;31.88;;;;;;;3.60;75.27;99418.81;10222733;28;20051;-82
2024/03/09 06:56:11;;;;;;;40.70;21.83;;;;;;;3.82;70.77;99412.03;10214577;28;20051;-83
2024/03/09 07:01:20;;;;;;;34.78;20.90;;;;;;;4.08;69.26;99407.56;10216500;28;20051;-82
2024/03/09 07:06:23;;;;;;;40.95;22.48;;;;;;;3.89;68.92;99402.66;10215321;28;21553;-82
2024/03/09 07:11:26;;;;;;;38.55;22.30;;;;;;;4.21;68.37;99408.41;10215687;28;20043;-82
2024/03/09 07:16:31;;;;;;;44.08;22.00;;;;;;;4.54;66.89;99407.84;10223635;28;20094;-82
2024/03/09 07:21:34;;;;;;;41.40;21.42;;;;;;;5.10;64.45;99399.41;10219776;28;20125;-82
2024/03/09 07:26:37;;;;;;;35.80;20.33;;;;;;;5.32;62.99;99390.66;10207463;28;20805;-82
2024/03/09 07:31:41;;;;;;;37.17;20.80;;;;;;;4.96;62.86;99384.38;10201609;28;20035;-81
2024/03/09 07:36:45;;;;;;;37.22;20.48;;;;;;;4.96;63.74;99402.16;10194247;28;20066;-81
2024/03/09 07:41:48;;;;;;;36.83;21.58;;;;;;;5.34;62.05;99398.53;10207459;28;20047;-83
2024/03/09 07:46:55;;;;;;;39.38;21.02;;;;;;;5.51;61.21;99387.44;10218249;28;20051;-83
2024/03/09 07:51:59;;;;;;;36.00;20.38;;;;;;;5.31;62.04;99385.44;10211138;28;20537;-83
2024/03/09 07:57:02;;;;;;;31.38;17.85;;;;;;;5.94;60.91;99381.50;10207510;28;20096;-80
2024/03/09 08:02:06;;;;;;;35.45;19.33;;;;;;;6.41;58.31;99384.91;10201695;28;20063;-82
2024/03/09 08:07:10;;;;;;;38.00;20.23;;;;;;;6.36;57.67;99385.28;10199298;28;20047;-80
2024/03/09 08:12:12;;;;;;;37.58;18.10;;;;;;;6.61;57.65;99373.50;10210824;28;20054;-83
2024/03/09 08:17:18;;;;;;;29.33;17.25;;;;;;;6.44;57.62;99368.63;10230600;28;20489;-83
2024/03/09 08:22:22;;;;;;;33.28;17.80;;;;;;;5.94;58.48;99355.66;10228866;28;21100;-81
2024/03/09 08:27:25;;;;;;;28.88;16.40;;;;;;;6.08;59.01;99341.25;10210737;28;20580;-81
2024/03/09 08:32:30;;;;;;;27.02;16.27;;;;;;;6.37;57.13;99335.44;10221493;28;20656;-81
2024/03/09 08:37:33;;;;;;;31.25;18.10;;;;;;;6.45;58.04;99324.16;10225803;28;20411;-81
2024/03/09 08:42:37;;;;;;;32.50;16.38;;;;;;;6.60;56.71;99341.59;10218266;28;20058;-81
2024/03/09 08:47:42;;;;;;;33.10;18.27;;;;;;;7.04;56.14;99355.81;10223110;28;20051;-81
2024/03/09 08:52:46;;;;;;;29.75;15.90;;;;;;;7.32;53.80;99361.53;10213134;28;20054;-81
2024/03/09 08:57:49;;;;;;;27.60;16.65;;;;;;;7.68;53.91;99365.63;10220196;28;20055;-81
2024/03/09 09:02:56;;;;;;;26.45;16.02;;;;;;;7.04;54.36;99358.47;10234535;28;20058;-81
2024/03/09 09:08:00;;;;;;;28.25;17.60;;;;;;;6.80;55.84;99347.97;10248377;28;20055;-82
2024/03/09 09:13:04;;;;;;;32.63;16.85;;;;;;;6.83;56.08;99351.25;10223748;28;20047;-82
2024/03/09 09:18:09;;;;;;;28.27;16.15;;;;;;;6.88;56.13;99347.38;10219033;28;20124;-81
2024/03/09 09:23:12;;;;;;;29.42;16.65;;;;;;;7.11;54.89;99343.66;10208819;28;20054;-82
2024/03/09 09:28:16;;;;;;;26.92;16.70;;;;;;;7.56;54.23;99337.25;10216738;28;20051;-82
2024/03/09 09:33:21;;;;;;;29.27;17.75;;;;;;;7.37;53.51;99340.63;10219810;28;20150;-82
2024/03/09 09:38:26;;;;;;;27.63;16.50;;;;;;;8.11;53.19;99335.16;10230010;28;20047;-81
2024/03/09 09:43:32;;;;;;;29.88;16.95;;;;;;;8.03;52.64;99321.59;10229653;28;20062;-81
2024/03/09 09:48:37;;;;;;;29.20;15.50;;;;;;;8.28;51.97;99317.63;10230617;28;20051;-81
2024/03/09 09:53:42;;;;;;;35.35;17.98;;;;;;;8.51;51.49;99300.41;10222539;28;20600;-81
2024/03/09 09:58:45;;;;;;;25.67;15.65;;;;;;;9.36;49.71;99298.91;10226983;28;20043;-81
2024/03/09 10:03:49;;;;;;;25.85;14.82;;;;;;;9.82;48.34;99302.63;10242131;28;20118;-82
2024/03/09 10:08:57;;;;;;;25.70;15.85;;;;;;;9.15;49.35;99295.53;10221299;28;20051;-81
2024/03/09 10:14:01;;;;;;;28.65;16.27;;;;;;;8.99;50.29;99296.91;10217735;28;20054;-81
2024/03/09 10:19:05;;;;;;;21.25;13.82;;;;;;;9.12;49.37;99298.50;10219338;28;20512;-81
2024/03/09 10:24:09;;;;;;;23.65;14.63;;;;;;;9.90;48.13;99292.03;10222958;28;20054;-82
2024/03/09 10:29:14;;;;;;;20.60;13.60;;;;;;;10.13;46.91;99284.44;10220098;28;20051;-82
2024/03/09 10:34:19;;;;;;;24.23;14.18;;;;;;;10.32;47.21;99277.31;10221555;28;20071;-82
2024/03/09 10:39:22;;;;;;;24.48;14.55;;;;;;;9.93;47.49;99275.66;10222406;28;20111;-80
2024/03/09 10:44:25;;;;;;;22.13;14.07;;;;;;;10.04;47.39;99276.44;10223260;28;20608;-82
2024/03/09 10:49:31;;;;;;;20.08;12.77;;;;;;;9.97;47.50;99267.31;10222629;28;20045;-82
2024/03/09 10:54:43;;;;;;;25.15;14.48;;;;;;;9.78;48.42;99262.81;10227691;28;20043;-81
2024/03/09 10:59:47;;;;;;;25.73;15.00;;;;;;;9.21;49.52;99263.63;10219400;28;20652;-81
2024/03/09 11:04:52;;;;;;;22.77;13.15;;;;;;;9.84;49.24;99267.59;10218060;28;20043;-81
2024/03/09 11:09:56;;;;;;;20.33;13.77;;;;;;;10.84;47.22;99258.72;10206976;28;20055;-83
2024/03/09 11:14:59;;;;;;;23.52;13.98;;;;;;;11.31;45.46;99257.66;10216406;28;20058;-83
2024/03/09 11:20:05;;;;;;;20.75;13.32;;;;;;;12.77;43.48;99245.88;10226928;28;20047;-83
2024/03/09 11:25:12;;;;;;;23.10;14.95;;;;;;;12.58;42.22;99253.25;10218504;28;20577;-82
2024/03/09 11:30:17;;;;;;;21.33;13.90;;;;;;;13.51;41.09;99244.06;10217020;28;20250;-83
2024/03/09 11:35:30;;;;;;;21.23;14.18;;;;;;;13.91;40.37;99248.53;10216917;28;20051;-82
2024/03/09 11:40:35;;;;;;;19.50;13.57;;;;;;;14.15;39.87;99244.03;10216703;28;20047;-82
2024/03/09 11:45:39;;;;;;;18.65;12.57;;;;;;;14.00;39.78;99243.94;10234537;28;20091;-81
2024/03/09 11:50:44;;;;;;;18.52;13.45;;;;;;;13.58;40.59;99239.66;10217097;28;20102;-81
2024/03/09 11:55:49;;;;;;;19.77;14.18;;;;;;;13.92;40.47;99233.16;10225642;28;20580;-81
2024/03/09 12:00:56;;;;;;;17.90;12.68;;;;;;;13.81;39.64;99233.53;10254227;28;20153;-81
2024/03/09 12:06:00;;;;;;;22.08;14.65;;;;;;;14.01;39.74;99218.59;10224661;28;21158;-81
2024/03/09 12:11:05;;;;;;;18.58;12.93;;;;;;;14.74;39.39;99214.69;10214475;28;20169;-83
2024/03/09 12:16:10;;;;;;;19.08;12.70;;;;;;;15.07;38.19;99214.44;10220773;28;20054;-81
2024/03/09 12:21:15;;;;;;;19.33;13.38;;;;;;;15.51;38.08;99202.06;10208720;28;20050;-81
2024/03/09 12:26:20;;;;;;;19.30;13.75;;;;;;;15.89;37.26;99189.28;10215525;28;20056;-80
2024/03/09 12:31:24;;;;;;;16.23;12.40;;;;;;;15.32;37.58;99176.34;10220780;28;20119;-81
2024/03/09 12:36:29;;;;;;;20.83;13.57;;;;;;;14.95;38.29;99167.25;10198865;28;20052;-82
2024/03/09 12:41:32;;;;;;;21.13;14.00;;;;;;;15.07;37.92;99170.34;10212484;28;20097;-81
2024/03/09 12:46:36;;;;;;;18.50;12.77;;;;;;;15.15;38.16;99156.75;10210199;28;20248;-81
2024/03/09 12:51:42;;;;;;;19.58;12.52;;;;;;;15.45;37.83;99144.13;10201097;28;20808;-82
2024/03/09 12:56:47;;;;;;;16.70;10.82;;;;;;;14.82;36.32;99151.63;10203009;28;20043;-81
2024/03/09 13:01:51;;;;;;;15.77;11.18;;;;;;;15.89;35.91;99140.56;10199331;28;20054;-81
2024/03/09 13:06:56;;;;;;;15.57;11.60;;;;;;;17.28;34.41;99130.28;10201265;28;20447;-83
2024/03/09 13:12:03;;;;;;;17.98;12.82;;;;;;;18.24;32.84;99119.50;10194340;28;20584;-82
2024/03/09 13:17:07;;;;;;;16.83;12.35;;;;;;;18.63;32.13;99131.50;10202213;28;20058;-81
2024/03/09 13:22:14;;;;;;;18.15;12.68;;;;;;;18.66;32.22;99128.34;10220436;28;20074;-81
2024/03/09 13:27:17;;;;;;;19.17;13.13;;;;;;;18.75;32.09;99127.09;10229714;28;20044;-82
2024/03/09 13:32:21;;;;;;;16.63;13.15;;;;;;;18.63;31.59;99130.66;10234925;28;20070;-82
2024/03/09 13:37:26;;;;;;;15.63;12.57;;;;;;;18.83;31.78;99126.09;10199332;28;20051;-80
2024/03/09 13:42:30;;;;;;;15.48;11.80;;;;;;;19.20;31.28;99121.06;10200677;28;20058;-83
2024/03/09 13:47:33;;;;;;;19.40;12.07;;;;;;;19.72;31.24;99110.28;10197855;28;20047;-82
2024/03/09 13:52:39;;;;;;;16.65;13.23;;;;;;;20.59;30.07;99089.72;10198841;28;20066;-81
2024/03/09 13:57:43;;;;;;;17.77;13.45;;;;;;;20.15;30.66;99087.88;10202544;28;20054;-81
2024/03/09 14:02:48;;;;;;;18.35;14.35;;;;;;;19.98;30.74;99096.56;10222932;28;20054;-81
2024/03/09 14:07:56;;;;;;;19.05;14.70;;;;;;;21.38;29.86;99088.19;10208364;28;20066;-80
2024/03/09 14:13:00;;;;;;;17.80;12.52;;;;;;;20.57;30.21;99083.66;10233903;28;21781;-81
2024/03/09 14:18:03;;;;;;;18.00;14.20;;;;;;;20.31;30.37;99084.66;10220654;28;20094;-81
2024/03/09 14:23:09;;;;;;;17.92;14.30;;;;;;;20.17;30.06;99089.34;10210137;28;20075;-81
2024/03/09 14:28:12;;;;;;;16.83;12.50;;;;;;;19.56;31.47;99087.94;10197576;28;20055;-81
2024/03/09 14:33:15;;;;;;;19.98;14.05;;;;;;;19.59;31.45;99081.22;10207725;28;20039;-80
2024/03/09 14:38:21;;;;;;;19.45;14.57;;;;;;;20.44;30.51;99081.84;10214349;28;20058;-80
2024/03/09 14:43:26;;;;;;;20.77;14.82;;;;;;;20.16;30.48;99070.44;10208644;28;20529;-80
2024/03/09 14:48:29;;;;;;;22.52;16.90;;;;;;;19.35;31.41;99052.78;10217236;28;20055;-81
2024/03/09 14:53:33;;;;;;;20.85;15.55;;;;;;;18.85;32.13;99053.28;10200693;28;20285;-81
2024/03/09 14:58:40;;;;;;;20.63;14.23;;;;;;;18.43;32.84;99066.22;10200624;28;20077;-80
2024/03/09 15:03:44;;;;;;;22.85;15.75;;;;;;;18.41;32.82;99057.44;10205967;28;20055;-81
2024/03/09 15:08:55;;;;;;;27.10;17.15;;;;;;;17.75;33.77;99063.50;10214863;28;20531;-80
2024/03/09 15:13:58;;;;;;;21.40;14.45;;;;;;;16.27;35.48;99064.56;10210071;28;20069;-80
2024/03/09 15:19:02;;;;;;;21.85;14.77;;;;;;;15.32;37.46;99058.16;10203498;28;20513;-80
2024/03/09 15:24:10;;;;;;;22.83;15.27;;;;;;;15.37;37.48;99063.88;10196906;28;20146;-80
2024/03/09 15:29:14;;;;;;;20.98;14.60;;;;;;;15.55;37.47;99052.69;10203823;28;20055;-81
2024/03/09 15:34:18;;;;;;;23.20;13.95;;;;;;;15.27;37.84;99052.47;10207609;28;20058;-80
2024/03/09 15:39:26;;;;;;;22.20;14.82;;;;;;;15.17;37.43;99051.94;10210557;28;20051;-80
2024/03/09 15:44:29;;;;;;;19.92;13.93;;;;;;;14.85;37.83;99047.72;10210387;28;20082;-81
2024/03/09 15:49:32;;;;;;;21.25;14.90;;;;;;;14.19;38.44;99059.03;10206517;28;20052;-80
2024/03/09 15:54:40;;;;;;;21.52;14.30;;;;;;;13.88;39.59;99051.84;10209572;28;20384;-80
2024/03/09 15:59:43;;;;;;;21.00;14.20;;;;;;;13.81;40.14;99048.16;10231615;28;20329;-80
2024/03/09 16:04:49;;;;;;;23.48;14.27;;;;;;;13.89;39.51;99042.69;10213722;28;20051;-79
2024/03/09 16:09:54;;;;;;;19.83;13.75;;;;;;;13.78;39.74;99047.69;10222455;28;20115;-81
2024/03/09 16:14:57;;;;;;;20.83;13.95;;;;;;;13.53;40.25;99042.41;10216205;28;20062;-79
2024/03/09 16:20:00;;;;;;;23.20;15.00;;;;;;;13.13;41.01;99041.50;10207374;28;20043;-80
2024/03/09 16:25:05;;;;;;;24.33;15.45;;;;;;;12.82;42.03;99026.09;10201476;28;20043;-80
2024/03/09 16:30:10;;;;;;;24.33;16.55;;;;;;;12.76;42.65;99028.66;10201640;28;20047;-79
2024/03/09 16:35:16;;;;;;;23.17;15.60;;;;;;;12.01;43.55;99037.72;10201520;28;20562;-80
2024/03/09 16:40:21;;;;;;;28.65;16.95;;;;;;;11.91;44.35;99029.81;10200337;28;20052;-80
2024/03/09 16:45:25;;;;;;;21.95;15.68;;;;;;;11.50;45.31;99029.72;10208342;28;20062;-79
2024/03/09 16:50:28;;;;;;;26.50;16.40;;;;;;;11.06;46.32;99032.53;10204471;28;20047;-81
2024/03/09 16:55:36;;;;;;;24.23;16.42;;;;;;;10.64;47.39;99035.16;10201009;28;20052;-79
2024/03/09 17:00:41;;;;;;;25.17;16.63;;;;;;;10.48;47.75;99038.56;10219851;28;20055;-80
2024/03/09 17:05:45;;;;;;;27.30;17.30;;;;;;;10.35;48.34;99036.25;10211300;28;20371;-80
2024/03/09 17:10:53;;;;;;;26.00;17.20;;;;;;;10.16;48.91;99029.22;10211099;28;20058;-79
2024/03/09 17:15:58;;;;;;;26.08;16.98;;;;;;;9.91;49.62;99032.69;10215141;28;20047;-79
2024/03/09 17:21:01;;;;;;;23.90;15.98;;;;;;;9.73;49.83;99028.09;10205554;28;20126;-78
2024/03/09 17:26:06;;;;;;;24.63;14.85;;;;;;;9.68;49.92;99035.78;10200367;28;20453;-80
2024/03/09 17:31:09;;;;;;;24.77;15.68;;;;;;;9.57;50.34;99038.69;10205873;28;20103;-79
2024/03/09 17:36:12;;;;;;;27.90;17.00;;;;;;;9.48;50.73;99052.97;10213426;28;20480;-80
2024/03/09 17:41:18;;;;;;;29.25;16.70;;;;;;;9.35;51.03;99056.03;10215459;28;20043;-79
2024/03/09 17:46:22;;;;;;;24.67;15.48;;;;;;;9.16;51.41;99064.13;10201610;28;20052;-81
2024/03/09 17:51:26;;;;;;;25.60;15.98;;;;;;;8.98;52.02;99061.38;10215224;28;21172;-80
2024/03/09 17:56:31;;;;;;;25.85;15.68;;;;;;;8.78;52.56;99061.44;10200172;28;20055;-80
2024/03/09 18:01:35;;;;;;;26.45;15.73;;;;;;;8.66;53.28;99073.31;10198386;28;20048;-80
2024/03/09 18:06:38;;;;;;;26.88;15.40;;;;;;;8.49;54.30;99063.34;10197380;28;20608;-78
2024/03/09 18:11:42;;;;;;;29.10;18.05;;;;;;;8.43;54.93;99069.22;10209790;28;20294;-79
2024/03/09 18:16:46;;;;;;;33.28;20.13;;;;;;;8.26;55.93;99079.66;10199912;29;20086;-80
2024/03/09 18:21:48;;;;;;;36.55;20.67;;;;;;;8.29;56.14;99078.53;10215299;28;20048;-80
2024/03/09 18:26:53;;;;;;;50.67;27.55;;;;;;;8.24;56.59;99097.69;10185607;28;20530;-79
2024/03/09 18:31:56;;;;;;;37.30;22.92;;;;;;;8.24;57.04;99092.34;10214895;28;20121;-79
2024/03/09 18:37:02;;;;;;;33.65;19.73;;;;;;;8.14;57.80;99088.81;10201979;28;20622;-79
2024/03/09 18:42:08;;;;;;;37.13;21.42;;;;;;;8.05;58.36;99095.84;10207082;28;20051;-80
2024/03/09 18:47:11;;;;;;;33.65;19.73;;;;;;;7.98;58.81;99093.84;10206904;28;20067;-80
2024/03/09 18:52:14;;;;;;;34.75;20.55;;;;;;;7.91;59.17;99078.38;10200487;28;20062;-78
2024/03/09 18:57:20;;;;;;;33.92;20.95;;;;;;;7.85;59.22;99068.25;10197151;28;20055;-79
2024/03/09 19:02:23;;;;;;;39.08;23.52;;;;;;;7.75;60.09;99067.38;10209036;28;20071;-79
2024/03/09 19:07:26;;;;;;;38.17;22.80;;;;;;;7.67;60.45;99065.38;10188248;28;20351;-80
2024/03/09 19:12:30;;;;;;;50.03;25.08;;;;;;;7.70;60.73;99066.94;10204558;28;20510;-79
2024/03/09 19:17:34;;;;;;;46.13;26.25;;;;;;;7.68;60.70;99059.09;10190048;28;20061;-81
2024/03/09 19:22:39;;;;;;;47.78;27.60;;;;;;;7.63;60.99;99057.81;10202950;28;20050;-80
2024/03/09 19:27:46;;;;;;;45.97;26.40;;;;;;;7.57;61.20;99044.97;10184243;28;20047;-79
2024/03/09 19:32:50;;;;;;;55.13;29.50;;;;;;;7.45;61.48;99046.91;10208104;28;20051;-80
2024/03/09 19:37:57;;;;;;;55.10;33.03;;;;;;;7.41;61.72;99046.38;10194717;28;20054;-79
2024/03/09 19:43:03;;;;;;;54.72;31.02;;;;;;;7.40;62.07;99041.97;10210441;28;21246;-80
2024/03/09 19:48:10;;;;;;;49.30;31.25;;;;;;;7.38;62.11;99045.81;10209660;28;20050;-80
2024/03/09 19:53:15;;;;;;;54.42;31.77;;;;;;;7.30;62.16;99037.63;10207246;28;20078;-79
2024/03/09 19:58:20;;;;;;;47.47;28.08;;;;;;;7.22;62.56;99039.13;10214354;28;21211;-80
2024/03/09 20:03:23;;;;;;;42.78;25.52;;;;;;;7.03;62.57;99041.72;10198783;28;20051;-79
2024/03/09 20:08:26;;;;;;;37.85;23.60;;;;;;;6.91;63.46;99042.78;10205984;28;20062;-80
2024/03/09 20:13:32;;;;;;;45.58;25.92;;;;;;;6.86;64.06;99037.84;10208830;28;20058;-79
2024/03/09 20:18:35;;;;;;;47.35;26.27;;;;;;;6.88;64.30;99040.38;10204686;28;20059;-80
2024/03/09 20:23:38;;;;;;;43.42;26.20;;;;;;;6.84;64.24;99029.94;10210359;28;20066;-79
2024/03/09 20:28:44;;;;;;;53.10;27.98;;;;;;;6.80;64.51;99031.22;10194929;28;20043;-78
2024/03/09 20:33:47;;;;;;;43.60;27.70;;;;;;;6.84;64.58;99026.44;10209507;28;20047;-80
2024/03/09 20:38:50;;;;;;;47.42;28.70;;;;;;;6.85;64.56;99018.28;10205196;28;20054;-78
2024/03/09 20:43:54;;;;;;;60.60;34.67;;;;;;;6.78;64.47;99019.81;10198851;28;20050;-78
2024/03/09 20:48:59;;;;;;;51.35;29.98;;;;;;;6.57;65.05;99025.19;10202480;28;20138;-78
2024/03/09 20:54:03;;;;;;;42.05;25.55;;;;;;;6.15;67.19;99024.34;10200545;28;21200;-78
2024/03/09 20:59:09;;;;;;;46.05;26.80;;;;;;;6.17;67.84;99014.38;10191838;28;20055;-79
2024/03/09 21:04:12;;;;;;;44.80;25.33;;;;;;;6.27;67.59;99023.31;10200699;28;20071;-78
2024/03/09 21:09:15;;;;;;;45.70;24.95;;;;;;;6.24;67.28;99014.72;10175455;29;20050;-77
2024/03/09 21:14:25;;;;;;;49.70;26.55;;;;;;;6.22;66.94;99006.84;10212774;28;20058;-78
2024/03/09 21:19:28;;;;;;;42.25;24.55;;;;;;;6.12;67.49;99000.63;10215412;28;20047;-79
2024/03/09 21:24:31;;;;;;;44.25;23.50;;;;;;;6.02;67.47;98995.22;10187724;28;20047;-78
2024/03/09 21:29:35;;;;;;;43.63;23.77;;;;;;;5.90;68.16;98991.75;10205638;28;20063;-80
2024/03/09 21:34:38;;;;;;;45.42;25.25;;;;;;;5.90;68.67;98993.59;10206035;28;20054;-80
2024/03/09 21:39:42;;;;;;;38.42;23.40;;;;;;;5.77;69.10;98982.25;10205346;28;20052;-80
2024/03/09 21:44:46;;;;;;;40.70;24.73;;;;;;;5.71;69.10;98983.63;10209818;28;20051;-78
2024/03/09 21:49:49;;;;;;;44.45;26.23;;;;;;;5.69;69.38;98982.88;10225887;28;20111;-77
2024/03/09 21:54:53;;;;;;;45.08;25.35;;;;;;;5.73;69.58;98986.97;10225573;28;20051;-79
2024/03/09 21:59:57;;;;;;;42.78;25.08;;;;;;;5.69;70.04;98975.72;10222858;28;20055;-79
2024/03/09 22:05:00;;;;;;;44.53;25.08;;;;;;;5.61;69.94;98956.03;10207735;28;20768;-80
2024/03/09 22:10:04;;;;;;;43.17;24.60;;;;;;;5.56;70.14;98951.09;10186988;28;20134;-81
2024/03/09 22:15:09;;;;;;;43.72;25.85;;;;;;;5.52;70.55;98954.16;10196535;28;20131;-80
2024/03/09 22:20:13;;;;;;;49.83;26.38;;;;;;;5.57;70.80;98959.91;10183260;29;20056;-80
2024/03/09 22:25:19;;;;;;;49.25;26.85;;;;;;;5.55;70.99;98961.88;10205492;28;20066;-80
2024/03/09 22:30:24;;;;;;;41.75;24.70;;;;;;;5.50;70.79;98963.09;10237132;28;20546;-80
2024/03/09 22:35:27;;;;;;;42.75;24.63;;;;;;;5.43;70.71;98953.94;10197310;28;20051;-80
2024/03/09 22:40:31;;;;;;;46.38;25.20;;;;;;;5.33;70.65;98949.50;10203564;28;20047;-80
2024/03/09 22:45:36;;;;;;;44.75;25.67;;;;;;;5.19;71.43;98958.59;10190521;29;20728;-80
2024/03/09 22:50:39;;;;;;;49.13;25.38;;;;;;;4.98;72.88;98954.00;10211829;28;20073;-80
2024/03/09 22:55:43;;;;;;;41.17;24.13;;;;;;;5.00;73.29;98957.41;10203322;28;20057;-80
2024/03/09 23:01:05;;;;;;;41.92;24.85;;;;;;;5.05;73.45;98959.72;10212054;28;20131;-80
2024/03/09 23:06:08;;;;;;;43.78;24.08;;;;;;;5.00;73.22;98953.91;10234128;28;20481;-79
2024/03/09 23:11:11;;;;;;;43.55;24.40;;;;;;;5.02;72.51;98949.31;10232871;28;20056;-80
2024/03/09 23:16:17;;;;;;;40.38;24.65;;;;;;;4.93;73.02;98953.50;10195702;28;20054;-80
2024/03/09 23:21:21;;;;;;;49.95;25.88;;;;;;;4.97;73.04;98951.47;10197677;28;20050;-80